createdAt,value
2022-11-09T00:00:45.792Z,15.22
2022-11-09T00:01:45.798Z,15.17
2022-11-09T00:02:45.772Z,15.22
2022-11-09T00:03:45.754Z,15.22
2022-11-09T00:04:45.976Z,15.14
2022-11-09T00:05:45.739Z,15.24
2022-11-09T00:06:45.775Z,15.24
2022-11-09T00:07:45.724Z,15.25
2022-11-09T00:08:45.704Z,15.19
2022-11-09T00:09:45.783Z,15.19
2022-11-09T00:10:45.677Z,15.21
2022-11-09T00:11:45.676Z,15.21
2022-11-09T00:12:45.657Z,15.18
2022-11-09T00:13:45.648Z,15.06
2022-11-09T00:14:45.648Z,15.09
2022-11-09T00:15:45.631Z,15.11
2022-11-09T00:16:45.630Z,15.10
2022-11-09T00:17:45.604Z,15.09
2022-11-09T00:18:45.607Z,15.14
2022-11-09T00:19:45.593Z,15.09
2022-11-09T00:20:47.980Z,15.15
2022-11-09T00:21:45.558Z,15.10
2022-11-09T00:22:45.549Z,15.10
2022-11-09T00:23:45.532Z,15.03
2022-11-09T00:24:45.528Z,15.03
2022-11-09T00:25:45.511Z,15.03
2022-11-09T00:26:45.502Z,15.03
2022-11-09T00:27:45.493Z,15.07
2022-11-09T00:28:45.472Z,15.07
2022-11-09T00:29:45.490Z,15.06
2022-11-09T00:30:45.454Z,15.09
2022-11-09T00:31:45.458Z,15.02
2022-11-09T00:32:45.439Z,15.00
2022-11-09T00:33:45.422Z,15.09
2022-11-09T00:34:45.410Z,15.04
2022-11-09T00:35:45.413Z,15.03
2022-11-09T00:36:45.409Z,15.07
2022-11-09T00:37:45.441Z,15.06
2022-11-09T00:38:45.400Z,15.02
2022-11-09T00:39:45.385Z,15.07
2022-11-09T00:40:45.352Z,15.07
2022-11-09T00:41:45.347Z,15.07
2022-11-09T00:42:45.333Z,15.03
2022-11-09T00:43:45.311Z,15.04
2022-11-09T00:44:45.314Z,15.00
2022-11-09T00:45:45.309Z,14.97
2022-11-09T00:46:45.279Z,14.99
2022-11-09T00:47:45.283Z,15.03
2022-11-09T00:48:45.257Z,15.03
2022-11-09T00:49:45.271Z,15.02
2022-11-09T00:50:45.252Z,14.97
2022-11-09T00:51:45.229Z,14.99
2022-11-09T00:52:45.228Z,15.02
2022-11-09T00:53:45.212Z,15.02
2022-11-09T00:54:45.204Z,15.03
2022-11-09T00:55:45.180Z,14.97
2022-11-09T00:56:45.179Z,15.07
2022-11-09T00:57:45.256Z,15.02
2022-11-09T00:58:45.165Z,14.97
2022-11-09T00:59:45.140Z,14.97
2022-11-09T01:00:45.181Z,15.03
2022-11-09T01:01:45.114Z,15.06
2022-11-09T01:02:45.101Z,15.02
2022-11-09T01:03:45.103Z,15.06
2022-11-09T01:04:45.093Z,15.03
2022-11-09T01:05:45.080Z,15.06
2022-11-09T01:06:45.141Z,15.09
2022-11-09T01:07:45.047Z,15.17
2022-11-09T01:08:45.060Z,15.24
2022-11-09T01:09:45.035Z,15.21
2022-11-09T01:10:45.016Z,15.09
2022-11-09T01:11:45.004Z,15.07
2022-11-09T01:12:44.996Z,15.07
2022-11-09T01:13:44.994Z,15.11
2022-11-09T01:14:44.974Z,15.07
2022-11-09T01:15:44.984Z,15.07
2022-11-09T01:16:44.948Z,15.15
2022-11-09T01:17:44.944Z,15.11
2022-11-09T01:18:44.936Z,15.15
2022-11-09T01:19:44.911Z,15.15
2022-11-09T01:20:44.909Z,15.10
2022-11-09T01:21:44.891Z,15.09
2022-11-09T01:22:44.889Z,15.15
2022-11-09T01:23:44.885Z,15.18
2022-11-09T01:24:44.875Z,15.10
2022-11-09T01:25:44.872Z,15.07
2022-11-09T01:26:44.842Z,15.06
2022-11-09T01:27:44.835Z,15.04
2022-11-09T01:28:44.820Z,15.09
2022-11-09T01:29:44.813Z,14.99
2022-11-09T01:30:44.788Z,15.03
2022-11-09T01:31:44.794Z,15.02
2022-11-09T01:32:44.769Z,15.00
2022-11-09T01:33:44.775Z,14.99
2022-11-09T01:34:44.763Z,15.02
2022-11-09T01:35:44.742Z,15.03
2022-11-09T01:36:44.726Z,14.97
2022-11-09T01:37:44.720Z,14.99
2022-11-09T01:38:44.706Z,14.99
2022-11-09T01:39:44.708Z,14.91
2022-11-09T01:40:44.709Z,14.96
2022-11-09T01:41:44.676Z,14.92
2022-11-09T01:42:44.656Z,14.97
2022-11-09T01:43:44.652Z,14.96
2022-11-09T01:44:44.636Z,14.99
2022-11-09T01:45:44.648Z,15.03
2022-11-09T01:46:44.625Z,14.99
2022-11-09T01:47:44.611Z,14.97
2022-11-09T01:48:44.603Z,14.99
2022-11-09T01:49:44.584Z,14.92
2022-11-09T01:50:44.572Z,14.91
2022-11-09T01:51:44.586Z,15.02
2022-11-09T01:52:44.567Z,15.02
2022-11-09T01:53:44.556Z,14.89
2022-11-09T01:54:44.526Z,14.97
2022-11-09T01:55:44.515Z,15.02
2022-11-09T01:56:44.525Z,15.02
2022-11-09T01:57:44.502Z,15.11
2022-11-09T01:58:44.482Z,15.04
2022-11-09T01:59:44.468Z,15.06
2022-11-09T02:00:44.510Z,14.97
2022-11-09T02:01:44.464Z,15.09
2022-11-09T02:02:44.459Z,15.10
2022-11-09T02:03:44.429Z,15.00
2022-11-09T02:04:44.418Z,15.07
2022-11-09T02:05:44.413Z,15.02
2022-11-09T02:06:44.431Z,14.96
2022-11-09T02:07:44.386Z,15.03
2022-11-09T02:08:44.388Z,15.07
2022-11-09T02:09:44.371Z,14.96
2022-11-09T02:10:44.358Z,15.03
2022-11-09T02:11:44.339Z,15.06
2022-11-09T02:12:44.353Z,15.03
2022-11-09T02:13:44.324Z,15.06
2022-11-09T02:14:44.314Z,15.04
2022-11-09T02:15:45.888Z,15.04
2022-11-09T02:16:44.337Z,15.04
2022-11-09T02:17:44.303Z,15.02
2022-11-09T02:18:44.266Z,15.07
2022-11-09T02:19:44.263Z,15.06
2022-11-09T02:20:44.264Z,15.09
2022-11-09T02:21:44.224Z,15.03
2022-11-09T02:22:44.216Z,15.04
2022-11-09T02:23:44.213Z,14.99
2022-11-09T02:24:44.240Z,15.03
2022-11-09T02:25:44.189Z,14.99
2022-11-09T02:26:44.178Z,14.85
2022-11-09T02:27:44.174Z,14.91
2022-11-09T02:28:44.206Z,14.91
2022-11-09T02:29:44.135Z,14.86
2022-11-09T02:30:44.131Z,14.96
2022-11-09T02:31:44.116Z,14.94
2022-11-09T02:32:44.113Z,14.92
2022-11-09T02:33:44.104Z,14.96
2022-11-09T02:34:44.086Z,14.92
2022-11-09T02:35:44.075Z,14.99
2022-11-09T02:36:44.064Z,14.92
2022-11-09T02:37:44.056Z,14.92
2022-11-09T02:38:44.055Z,15.00
2022-11-09T02:39:44.024Z,14.89
2022-11-09T02:40:44.023Z,15.00
2022-11-09T02:41:44.021Z,14.99
2022-11-09T02:42:44.011Z,14.96
2022-11-09T02:43:43.983Z,14.92
2022-11-09T02:44:43.997Z,14.97
2022-11-09T02:45:43.975Z,14.89
2022-11-09T02:46:43.952Z,14.88
2022-11-09T02:47:43.948Z,14.85
2022-11-09T02:48:43.932Z,14.88
2022-11-09T02:49:43.933Z,14.92
2022-11-09T02:50:43.914Z,14.86
2022-11-09T02:51:43.917Z,14.88
2022-11-09T02:52:43.887Z,14.97
2022-11-09T02:53:43.874Z,14.94
2022-11-09T02:54:43.865Z,14.94
2022-11-09T02:55:43.862Z,14.89
2022-11-09T02:56:43.848Z,14.85
2022-11-09T02:57:43.827Z,14.88
2022-11-09T02:58:43.818Z,14.97
2022-11-09T02:59:43.803Z,14.86
2022-11-09T03:00:43.943Z,14.96
2022-11-09T03:01:43.816Z,14.96
2022-11-09T03:02:43.784Z,14.91
2022-11-09T03:03:43.766Z,14.91
2022-11-09T03:04:43.753Z,14.85
2022-11-09T03:05:43.754Z,14.97
2022-11-09T03:06:43.799Z,14.82
2022-11-09T03:07:43.716Z,14.91
2022-11-09T03:08:43.708Z,14.81
2022-11-09T03:09:43.703Z,14.92
2022-11-09T03:10:43.687Z,14.88
2022-11-09T03:11:43.682Z,14.91
2022-11-09T03:12:43.673Z,14.78
2022-11-09T03:13:43.647Z,14.91
2022-11-09T03:14:43.642Z,14.91
2022-11-09T03:15:43.629Z,14.84
2022-11-09T03:16:49.140Z,14.92
2022-11-09T03:17:44.622Z,14.96
2022-11-09T03:18:43.616Z,14.88
2022-11-09T03:19:43.585Z,14.84
2022-11-09T03:20:43.578Z,14.88
2022-11-09T03:21:43.571Z,14.89
2022-11-09T03:22:43.583Z,14.91
2022-11-09T03:23:43.554Z,14.82
2022-11-09T03:24:43.530Z,14.82
2022-11-09T03:25:43.522Z,14.89
2022-11-09T03:26:43.512Z,14.91
2022-11-09T03:27:43.491Z,14.88
2022-11-09T03:28:43.499Z,14.94
2022-11-09T03:29:43.480Z,14.88
2022-11-09T03:30:43.462Z,14.86
2022-11-09T03:31:43.466Z,15.00
2022-11-09T03:32:48.008Z,14.86
2022-11-09T03:33:44.449Z,14.96
2022-11-09T03:34:43.421Z,15.04
2022-11-09T03:35:43.418Z,15.00
2022-11-09T03:36:43.399Z,15.00
2022-11-09T03:37:43.460Z,14.94
2022-11-09T03:38:43.389Z,14.96
2022-11-09T03:39:43.360Z,14.91
2022-11-09T03:40:43.392Z,14.89
2022-11-09T03:41:43.350Z,14.86
2022-11-09T03:42:43.334Z,14.82
2022-11-09T03:43:43.327Z,14.86
2022-11-09T03:44:43.311Z,14.88
2022-11-09T03:45:43.317Z,14.91
2022-11-09T03:46:43.287Z,14.86
2022-11-09T03:47:43.274Z,14.88
2022-11-09T03:48:43.300Z,14.86
2022-11-09T03:49:43.267Z,14.88
2022-11-09T03:50:43.251Z,14.84
2022-11-09T03:51:43.237Z,14.81
2022-11-09T03:52:43.228Z,14.82
2022-11-09T03:53:43.209Z,14.72
2022-11-09T03:54:43.212Z,14.81
2022-11-09T03:55:43.190Z,14.72
2022-11-09T03:56:43.187Z,14.81
2022-11-09T03:57:43.168Z,14.73
2022-11-09T03:58:43.166Z,14.66
2022-11-09T03:59:43.148Z,14.72
2022-11-09T04:00:43.134Z,14.70
2022-11-09T04:01:43.261Z,14.69
2022-11-09T04:02:43.121Z,14.73
2022-11-09T04:03:43.100Z,14.70
2022-11-09T04:04:43.114Z,14.69
2022-11-09T04:05:43.074Z,14.65
2022-11-09T04:06:43.136Z,14.59
2022-11-09T04:07:43.068Z,14.68
2022-11-09T04:08:48.377Z,14.68
2022-11-09T04:09:44.034Z,14.63
2022-11-09T04:10:43.042Z,14.60
2022-11-09T04:11:43.024Z,14.70
2022-11-09T04:12:43.015Z,14.68
2022-11-09T04:13:42.985Z,14.69
2022-11-09T04:14:42.983Z,14.59
2022-11-09T04:15:42.965Z,14.58
2022-11-09T04:16:42.975Z,14.62
2022-11-09T04:17:42.957Z,14.66
2022-11-09T04:18:42.943Z,14.66
2022-11-09T04:19:42.931Z,14.58
2022-11-09T04:20:42.934Z,14.69
2022-11-09T04:21:42.908Z,14.66
2022-11-09T04:22:42.888Z,14.63
2022-11-09T04:23:42.891Z,14.65
2022-11-09T04:24:42.869Z,14.62
2022-11-09T04:25:42.854Z,14.79
2022-11-09T04:26:42.846Z,14.68
2022-11-09T04:27:42.843Z,14.63
2022-11-09T04:28:42.854Z,14.65
2022-11-09T04:29:42.821Z,14.63
2022-11-09T04:30:42.813Z,14.63
2022-11-09T04:31:42.812Z,14.66
2022-11-09T04:32:42.779Z,14.70
2022-11-09T04:33:42.860Z,14.70
2022-11-09T04:34:42.764Z,14.66
2022-11-09T04:35:42.758Z,14.53
2022-11-09T04:36:42.755Z,14.68
2022-11-09T04:37:42.731Z,14.73
2022-11-09T04:38:42.719Z,14.54
2022-11-09T04:39:42.723Z,14.70
2022-11-09T04:40:42.689Z,14.70
2022-11-09T04:41:42.678Z,14.66
2022-11-09T04:42:42.672Z,14.59
2022-11-09T04:43:42.670Z,14.66
2022-11-09T04:44:42.666Z,14.63
2022-11-09T04:45:42.642Z,14.60
2022-11-09T04:46:42.631Z,14.59
2022-11-09T04:47:42.616Z,14.62
2022-11-09T04:48:42.626Z,14.59
2022-11-09T04:49:42.593Z,14.45
2022-11-09T04:50:42.592Z,14.58
2022-11-09T04:51:42.575Z,14.54
2022-11-09T04:52:42.579Z,14.59
2022-11-09T04:53:42.643Z,14.48
2022-11-09T04:54:42.544Z,14.45
2022-11-09T04:55:42.527Z,14.44
2022-11-09T04:56:42.519Z,14.41
2022-11-09T04:57:42.500Z,14.50
2022-11-09T04:58:42.494Z,14.41
2022-11-09T04:59:42.487Z,14.44
2022-11-09T05:00:42.471Z,14.47
2022-11-09T05:01:42.468Z,14.47
2022-11-09T05:02:42.452Z,14.48
2022-11-09T05:03:49.637Z,14.43
2022-11-09T05:04:42.426Z,14.41
2022-11-09T05:05:47.968Z,14.44
2022-11-09T05:06:43.522Z,14.51
2022-11-09T05:07:42.403Z,14.53
2022-11-09T05:08:42.419Z,14.44
2022-11-09T05:09:42.384Z,14.48
2022-11-09T05:10:42.358Z,14.45
2022-11-09T05:11:42.348Z,14.41
2022-11-09T05:12:45.817Z,14.32
2022-11-09T05:13:42.328Z,14.35
2022-11-09T05:14:42.310Z,14.29
2022-11-09T05:15:42.312Z,14.36
2022-11-09T05:16:42.296Z,14.30
2022-11-09T05:17:42.284Z,14.37
2022-11-09T05:18:42.284Z,14.36
2022-11-09T05:19:42.286Z,14.40
2022-11-09T05:20:42.259Z,14.33
2022-11-09T05:21:42.234Z,14.36
2022-11-09T05:22:42.233Z,14.36
2022-11-09T05:23:42.215Z,14.33
2022-11-09T05:24:42.239Z,14.30
2022-11-09T05:25:42.188Z,14.23
2022-11-09T05:26:42.188Z,14.29
2022-11-09T05:27:42.175Z,14.25
2022-11-09T05:28:42.194Z,14.26
2022-11-09T05:29:42.146Z,14.20
2022-11-09T05:30:42.143Z,14.28
2022-11-09T05:31:43.080Z,14.26
2022-11-09T05:32:42.155Z,14.28
2022-11-09T05:33:42.111Z,14.17
2022-11-09T05:34:42.093Z,14.20
2022-11-09T05:35:42.089Z,14.07
2022-11-09T05:36:42.099Z,14.17
2022-11-09T05:37:42.060Z,14.20
2022-11-09T05:38:42.054Z,14.07
2022-11-09T05:39:42.030Z,14.15
2022-11-09T05:40:42.064Z,14.17
2022-11-09T05:41:42.011Z,14.12
2022-11-09T05:42:42.011Z,14.12
2022-11-09T05:43:41.987Z,14.05
2022-11-09T05:44:42.009Z,14.07
2022-11-09T05:45:43.616Z,14.08
2022-11-09T05:46:41.995Z,14.04
2022-11-09T05:47:41.951Z,14.07
2022-11-09T05:48:41.935Z,14.05
2022-11-09T05:49:41.955Z,13.97
2022-11-09T05:50:41.921Z,14.03
2022-11-09T05:51:41.899Z,14.00
2022-11-09T05:52:41.895Z,14.11
2022-11-09T05:53:46.088Z,14.04
2022-11-09T05:54:41.898Z,14.08
2022-11-09T05:55:41.855Z,13.95
2022-11-09T05:56:41.886Z,13.92
2022-11-09T05:57:41.847Z,13.95
2022-11-09T05:58:41.837Z,13.90
2022-11-09T05:59:41.832Z,13.87
2022-11-09T06:00:41.799Z,13.87
2022-11-09T06:01:41.860Z,13.87
2022-11-09T06:02:41.799Z,13.97
2022-11-09T06:03:41.775Z,13.81
2022-11-09T06:04:41.763Z,13.93
2022-11-09T06:05:41.759Z,13.81
2022-11-09T06:06:41.793Z,13.81
2022-11-09T06:07:41.738Z,13.78
2022-11-09T06:08:41.713Z,13.78
2022-11-09T06:09:41.698Z,13.78
2022-11-09T06:10:41.698Z,13.83
2022-11-09T06:11:41.684Z,13.78
2022-11-09T06:12:41.689Z,13.83
2022-11-09T06:13:41.664Z,13.75
2022-11-09T06:14:41.663Z,13.70
2022-11-09T06:15:41.639Z,13.71
2022-11-09T06:16:41.629Z,13.65
2022-11-09T06:17:41.622Z,13.67
2022-11-09T06:18:41.597Z,13.67
2022-11-09T06:19:41.603Z,13.68
2022-11-09T06:20:41.577Z,13.65
2022-11-09T06:21:41.609Z,13.65
2022-11-09T06:22:41.569Z,13.68
2022-11-09T06:23:41.552Z,13.65
2022-11-09T06:24:41.556Z,13.62
2022-11-09T06:25:41.530Z,13.57
2022-11-09T06:26:41.510Z,13.52
2022-11-09T06:27:41.510Z,13.57
2022-11-09T06:28:41.520Z,13.60
2022-11-09T06:29:41.480Z,13.52
2022-11-09T06:30:41.475Z,13.57
2022-11-09T06:31:41.459Z,13.60
2022-11-09T06:32:41.451Z,13.62
2022-11-09T06:33:41.442Z,13.60
2022-11-09T06:34:41.430Z,13.59
2022-11-09T06:35:41.432Z,13.68
2022-11-09T06:36:41.407Z,13.65
2022-11-09T06:37:41.389Z,13.67
2022-11-09T06:38:41.390Z,13.57
2022-11-09T06:39:41.369Z,13.62
2022-11-09T06:40:41.362Z,13.63
2022-11-09T06:42:00.833Z,13.62
2022-11-09T06:42:42.488Z,13.68
2022-11-09T06:43:41.327Z,13.62
2022-11-09T06:44:41.343Z,13.59
2022-11-09T06:45:41.313Z,13.62
2022-11-09T06:46:41.287Z,13.65
2022-11-09T06:47:41.289Z,13.60
2022-11-09T06:48:41.269Z,13.60
2022-11-09T06:49:41.260Z,13.54
2022-11-09T06:50:41.256Z,13.54
2022-11-09T06:51:41.250Z,13.52
2022-11-09T06:52:41.223Z,13.53
2022-11-09T06:53:41.214Z,13.56
2022-11-09T06:54:41.197Z,13.63
2022-11-09T06:55:44.497Z,13.62
2022-11-09T06:56:42.178Z,13.60
2022-11-09T06:57:41.172Z,13.62
2022-11-09T06:58:41.171Z,13.59
2022-11-09T06:59:41.155Z,13.59
2022-11-09T07:00:41.148Z,13.59
2022-11-09T07:01:41.240Z,13.62
2022-11-09T07:02:41.117Z,13.62
2022-11-09T07:03:41.103Z,13.67
2022-11-09T07:04:41.130Z,13.57
2022-11-09T07:05:41.087Z,13.59
2022-11-09T07:06:41.163Z,13.52
2022-11-09T07:07:41.064Z,13.57
2022-11-09T07:08:41.040Z,13.59
2022-11-09T07:09:41.035Z,13.52
2022-11-09T07:10:41.019Z,13.56
2022-11-09T07:11:41.025Z,13.56
2022-11-09T07:12:41.007Z,13.49
2022-11-09T07:13:40.996Z,13.53
2022-11-09T07:14:40.975Z,13.52
2022-11-09T07:15:40.986Z,13.46
2022-11-09T07:16:40.983Z,13.42
2022-11-09T07:17:40.945Z,13.46
2022-11-09T07:18:40.947Z,13.42
2022-11-09T07:19:40.923Z,13.46
2022-11-09T07:20:40.920Z,13.42
2022-11-09T07:21:40.902Z,13.42
2022-11-09T07:22:40.896Z,13.46
2022-11-09T07:23:40.900Z,13.46
2022-11-09T07:24:40.862Z,13.44
2022-11-09T07:25:40.865Z,13.49
2022-11-09T07:26:40.856Z,13.44
2022-11-09T07:27:40.835Z,13.46
2022-11-09T07:28:40.832Z,13.46
2022-11-09T07:29:40.829Z,13.49
2022-11-09T07:30:40.820Z,13.41
2022-11-09T07:31:40.803Z,13.47
2022-11-09T07:33:41.773Z,13.44
2022-11-09T07:34:40.748Z,13.46
2022-11-09T07:35:40.749Z,13.42
2022-11-09T07:36:40.728Z,13.42
2022-11-09T07:37:40.721Z,13.44
2022-11-09T07:38:40.717Z,13.46
2022-11-09T07:39:40.695Z,13.44
2022-11-09T07:40:40.693Z,13.46
2022-11-09T07:41:40.676Z,13.49
2022-11-09T07:42:40.660Z,13.50
2022-11-09T07:43:40.652Z,13.44
2022-11-09T07:44:40.646Z,13.44
2022-11-09T07:45:40.646Z,13.47
2022-11-09T07:46:40.623Z,13.46
2022-11-09T07:47:40.619Z,13.47
2022-11-09T07:48:40.613Z,13.47
2022-11-09T07:49:40.584Z,13.49
2022-11-09T07:50:40.574Z,13.54
2022-11-09T07:51:40.569Z,13.47
2022-11-09T07:52:40.550Z,13.52
2022-11-09T07:53:40.551Z,13.47
2022-11-09T07:54:40.527Z,13.44
2022-11-09T07:55:40.527Z,13.56
2022-11-09T07:56:40.524Z,13.52
2022-11-09T07:57:40.495Z,13.53
2022-11-09T07:58:40.486Z,13.57
2022-11-09T07:59:40.480Z,13.59
2022-11-09T08:00:40.468Z,13.60
2022-11-09T08:01:40.548Z,13.63
2022-11-09T08:02:40.450Z,13.67
2022-11-09T08:03:40.432Z,13.70
2022-11-09T08:04:40.439Z,13.70
2022-11-09T08:05:40.422Z,13.85
2022-11-09T08:06:40.456Z,13.77
2022-11-09T08:07:40.397Z,13.77
2022-11-09T08:08:40.381Z,14.00
2022-11-09T08:09:40.374Z,14.30
2022-11-09T08:10:40.347Z,14.60
2022-11-09T08:11:40.357Z,14.84
2022-11-09T08:12:40.355Z,14.94
2022-11-09T08:13:40.332Z,15.15
2022-11-09T08:14:40.307Z,15.21
2022-11-09T08:15:40.299Z,15.35
2022-11-09T08:16:40.294Z,15.40
2022-11-09T08:17:40.284Z,15.73
2022-11-09T08:18:40.269Z,15.83
2022-11-09T08:19:40.251Z,15.84
2022-11-09T08:20:40.254Z,15.94
2022-11-09T08:21:40.239Z,15.86
2022-11-09T08:22:40.221Z,15.77
2022-11-09T08:23:40.212Z,15.59
2022-11-09T08:24:40.190Z,15.29
2022-11-09T08:25:40.190Z,15.03
2022-11-09T08:26:40.178Z,14.92
2022-11-09T08:27:40.162Z,14.99
2022-11-09T08:28:40.160Z,14.85
2022-11-09T08:29:40.146Z,14.91
2022-11-09T08:30:40.125Z,15.02
2022-11-09T08:31:40.116Z,14.97
2022-11-09T08:32:40.103Z,14.99
2022-11-09T08:33:40.095Z,14.96
2022-11-09T08:34:40.110Z,15.02
2022-11-09T08:35:40.073Z,14.97
2022-11-09T08:36:40.093Z,14.99
2022-11-09T08:37:40.067Z,14.85
2022-11-09T08:38:40.038Z,14.91
2022-11-09T08:39:40.054Z,14.79
2022-11-09T08:40:40.014Z,14.78
2022-11-09T08:41:40.019Z,14.86
2022-11-09T08:42:39.997Z,14.97
2022-11-09T08:43:39.987Z,15.06
2022-11-09T08:44:39.990Z,14.97
2022-11-09T08:45:39.974Z,15.09
2022-11-09T08:46:41.401Z,15.02
2022-11-09T08:47:39.941Z,14.99
2022-11-09T08:48:39.937Z,15.04
2022-11-09T08:49:39.920Z,14.99
2022-11-09T08:50:39.926Z,14.92
2022-11-09T08:51:39.902Z,14.86
2022-11-09T08:52:39.899Z,14.89
2022-11-09T08:53:39.869Z,14.77
2022-11-09T08:54:39.864Z,14.73
2022-11-09T08:55:39.867Z,14.65
2022-11-09T08:56:39.837Z,14.62
2022-11-09T08:57:39.836Z,14.55
2022-11-09T08:58:39.811Z,14.59
2022-11-09T08:59:39.813Z,14.53
2022-11-09T09:00:39.795Z,14.48
2022-11-09T09:01:39.865Z,14.44
2022-11-09T09:02:39.784Z,14.51
2022-11-09T09:03:39.786Z,14.43
2022-11-09T09:04:39.745Z,14.45
2022-11-09T09:05:39.755Z,14.51
2022-11-09T09:06:39.812Z,14.51
2022-11-09T09:07:39.741Z,14.50
2022-11-09T09:08:39.736Z,14.48
2022-11-09T09:09:39.698Z,14.55
2022-11-09T09:10:39.680Z,14.55
2022-11-09T09:11:39.673Z,14.59
2022-11-09T09:12:39.657Z,14.53
2022-11-09T09:13:43.334Z,14.48
2022-11-09T09:14:39.645Z,14.54
2022-11-09T09:15:39.624Z,14.44
2022-11-09T09:16:39.612Z,14.55
2022-11-09T09:17:39.605Z,14.53
2022-11-09T09:18:39.610Z,14.54
2022-11-09T09:19:39.584Z,14.54
2022-11-09T09:20:39.582Z,14.60
2022-11-09T09:21:39.560Z,14.55
2022-11-09T09:22:39.554Z,14.55
2022-11-09T09:23:39.564Z,14.43
2022-11-09T09:24:39.566Z,14.48
2022-11-09T09:25:39.523Z,14.43
2022-11-09T09:26:39.511Z,14.54
2022-11-09T09:27:39.493Z,14.47
2022-11-09T09:28:39.495Z,14.58
2022-11-09T09:29:39.474Z,14.47
2022-11-09T09:30:39.455Z,14.53
2022-11-09T09:31:39.451Z,14.54
2022-11-09T09:32:39.452Z,14.60
2022-11-09T09:33:39.450Z,14.69
2022-11-09T09:34:39.417Z,14.65
2022-11-09T09:35:39.403Z,14.53
2022-11-09T09:36:44.733Z,14.54
2022-11-09T09:37:40.385Z,14.58
2022-11-09T09:38:39.370Z,14.53
2022-11-09T09:39:39.378Z,14.54
2022-11-09T09:40:39.368Z,14.59
2022-11-09T09:41:39.347Z,14.55
2022-11-09T09:42:39.326Z,14.63
2022-11-09T09:43:42.952Z,14.60
2022-11-09T09:44:39.324Z,14.58
2022-11-09T09:45:39.301Z,14.72
2022-11-09T09:46:39.284Z,14.70
2022-11-09T09:47:39.291Z,14.73
2022-11-09T09:48:39.278Z,14.78
2022-11-09T09:49:39.297Z,14.72
2022-11-09T09:50:39.236Z,14.84
2022-11-09T09:51:39.233Z,14.97
2022-11-09T09:52:39.215Z,15.14
2022-11-09T09:53:39.203Z,15.24
2022-11-09T09:54:39.195Z,15.35
2022-11-09T09:55:39.208Z,15.29
2022-11-09T09:56:39.188Z,15.22
2022-11-09T09:57:42.123Z,15.31
2022-11-09T09:58:39.146Z,15.25
2022-11-09T09:59:39.138Z,15.24
2022-11-09T10:00:39.124Z,15.33
2022-11-09T10:01:39.124Z,15.39
2022-11-09T10:02:39.110Z,15.33
2022-11-09T10:03:39.099Z,15.43
2022-11-09T10:04:39.108Z,15.31
2022-11-09T10:05:39.088Z,15.42
2022-11-09T10:06:39.129Z,15.46
2022-11-09T10:07:39.054Z,15.39
2022-11-09T10:08:39.050Z,15.49
2022-11-09T10:09:39.035Z,15.57
2022-11-09T10:10:39.017Z,15.64
2022-11-09T10:11:39.025Z,15.73
2022-11-09T10:12:39.012Z,15.73
2022-11-09T10:13:38.990Z,15.70
2022-11-09T10:14:38.965Z,15.75
2022-11-09T10:15:38.967Z,15.72
2022-11-09T10:16:38.969Z,15.67
2022-11-09T10:17:38.949Z,15.57
2022-11-09T10:18:38.950Z,15.61
2022-11-09T10:19:38.955Z,15.58
2022-11-09T10:20:38.930Z,15.55
2022-11-09T10:21:38.895Z,15.44
2022-11-09T10:22:38.915Z,15.42
2022-11-09T10:23:38.872Z,15.29
2022-11-09T10:24:48.727Z,15.29
2022-11-09T10:26:39.846Z,15.33
2022-11-09T10:27:38.858Z,15.36
2022-11-09T10:29:09.305Z,15.15
2022-11-09T10:29:39.809Z,15.22
2022-11-09T10:30:38.814Z,15.10
2022-11-09T10:31:38.785Z,15.04
2022-11-09T10:32:38.778Z,15.03
2022-11-09T10:33:38.770Z,14.96
2022-11-09T10:34:38.755Z,15.00
2022-11-09T10:35:38.775Z,15.09
2022-11-09T10:36:38.740Z,15.11
2022-11-09T10:37:38.737Z,15.22
2022-11-09T10:38:38.718Z,15.22
2022-11-09T10:39:38.743Z,15.18
2022-11-09T10:40:38.691Z,15.24
2022-11-09T10:41:38.671Z,15.19
2022-11-09T10:42:38.665Z,15.28
2022-11-09T10:43:38.649Z,15.36
2022-11-09T10:44:38.671Z,15.40
2022-11-09T10:45:38.650Z,15.43
2022-11-09T10:46:38.634Z,15.61
2022-11-09T10:47:38.601Z,15.59
2022-11-09T10:48:38.593Z,15.58
2022-11-09T10:49:38.590Z,15.54
2022-11-09T10:50:38.591Z,15.59
2022-11-09T10:51:38.564Z,15.65
2022-11-09T10:52:41.865Z,15.72
2022-11-09T10:53:39.537Z,15.67
2022-11-09T10:54:38.532Z,15.57
2022-11-09T10:55:38.515Z,15.51
2022-11-09T10:57:00.581Z,15.44
2022-11-09T10:57:39.494Z,15.55
2022-11-09T10:58:38.503Z,15.62
2022-11-09T10:59:38.469Z,15.57
2022-11-09T11:00:38.483Z,15.61
2022-11-09T11:01:38.573Z,15.70
2022-11-09T11:02:38.445Z,15.75
2022-11-09T11:03:38.442Z,15.70
2022-11-09T11:04:45.531Z,15.79
2022-11-09T11:05:38.424Z,15.77
2022-11-09T11:06:38.451Z,15.73
2022-11-09T11:07:38.432Z,15.79
2022-11-09T11:08:38.387Z,15.79
2022-11-09T11:09:38.379Z,15.79
2022-11-09T11:10:38.351Z,15.95
2022-11-09T11:11:38.560Z,15.97
2022-11-09T11:12:38.336Z,15.91
2022-11-09T11:13:38.317Z,15.90
2022-11-09T11:14:38.306Z,15.94
2022-11-09T11:15:38.291Z,15.84
2022-11-09T11:16:38.307Z,16.00
2022-11-09T11:17:38.294Z,15.86
2022-11-09T11:18:38.266Z,15.94
2022-11-09T11:19:38.249Z,15.91
2022-11-09T11:20:38.250Z,16.00
2022-11-09T11:21:38.236Z,16.00
2022-11-09T11:22:38.220Z,16.04
2022-11-09T11:23:38.221Z,16.10
2022-11-09T11:24:38.221Z,16.16
2022-11-09T11:25:38.190Z,16.13
2022-11-09T11:26:38.183Z,16.01
2022-11-09T11:27:38.167Z,15.94
2022-11-09T11:28:38.165Z,15.72
2022-11-09T11:29:38.140Z,15.79
2022-11-09T11:30:38.152Z,15.82
2022-11-09T11:31:38.138Z,15.73
2022-11-09T11:32:38.133Z,15.68
2022-11-09T11:33:38.102Z,15.82
2022-11-09T11:34:59.061Z,15.90
2022-11-09T11:35:39.092Z,15.88
2022-11-09T11:36:38.067Z,15.88
2022-11-09T11:37:38.076Z,15.77
2022-11-09T11:38:38.047Z,15.83
2022-11-09T11:39:38.030Z,15.86
2022-11-09T11:40:38.048Z,15.86
2022-11-09T11:41:38.011Z,15.84
2022-11-09T11:42:38.005Z,15.75
2022-11-09T11:43:37.984Z,15.79
2022-11-09T11:44:38.028Z,15.84
2022-11-09T11:45:41.167Z,15.72
2022-11-09T11:46:37.971Z,15.97
2022-11-09T11:47:37.941Z,15.94
2022-11-09T11:48:37.956Z,16.01
2022-11-09T11:49:37.937Z,16.16
2022-11-09T11:50:37.915Z,16.23
2022-11-09T11:51:37.907Z,16.26
2022-11-09T11:52:37.902Z,16.26
2022-11-09T11:53:43.069Z,16.38
2022-11-09T11:54:38.866Z,16.49
2022-11-09T11:55:37.871Z,16.58
2022-11-09T11:56:37.843Z,16.68
2022-11-09T11:57:37.840Z,16.54
2022-11-09T11:58:37.822Z,16.65
2022-11-09T11:59:37.817Z,16.54
2022-11-09T12:00:37.798Z,16.61
2022-11-09T12:01:37.793Z,16.66
2022-11-09T12:02:37.861Z,16.81
2022-11-09T12:03:37.766Z,16.75
2022-11-09T12:04:37.785Z,16.66
2022-11-09T12:05:37.761Z,16.43
2022-11-09T12:06:39.659Z,16.33
2022-11-09T12:07:37.719Z,16.16
2022-11-09T12:08:37.720Z,16.10
2022-11-09T12:09:37.699Z,16.08
2022-11-09T12:10:37.694Z,16.02
2022-11-09T12:11:37.676Z,16.02
2022-11-09T12:12:37.679Z,15.86
2022-11-09T12:13:37.653Z,15.92
2022-11-09T12:14:37.648Z,15.86
2022-11-09T12:15:37.628Z,15.76
2022-11-09T12:16:37.631Z,15.91
2022-11-09T12:17:37.606Z,15.68
2022-11-09T12:18:37.601Z,15.77
2022-11-09T12:19:37.602Z,15.67
2022-11-09T12:20:37.595Z,15.62
2022-11-09T12:21:37.576Z,15.65
2022-11-09T12:22:37.556Z,15.72
2022-11-09T12:23:37.556Z,15.68
2022-11-09T12:24:37.532Z,15.65
2022-11-09T12:25:37.515Z,15.84
2022-11-09T12:26:37.508Z,15.94
2022-11-09T12:27:37.510Z,15.91
2022-11-09T12:28:37.496Z,15.90
2022-11-09T12:29:37.478Z,15.97
2022-11-09T12:30:37.477Z,15.86
2022-11-09T12:31:37.450Z,15.75
2022-11-09T12:32:37.448Z,15.70
2022-11-09T12:33:42.886Z,15.73
2022-11-09T12:34:37.425Z,15.75
2022-11-09T12:35:37.463Z,15.72
2022-11-09T12:36:37.419Z,15.59
2022-11-09T12:37:37.397Z,15.67
2022-11-09T12:38:37.386Z,15.64
2022-11-09T12:39:37.360Z,15.55
2022-11-09T12:40:37.358Z,15.52
2022-11-09T12:41:37.339Z,15.55
2022-11-09T12:42:37.331Z,15.59
2022-11-09T12:43:37.333Z,15.57
2022-11-09T12:44:37.307Z,15.44
2022-11-09T12:45:37.302Z,15.52
2022-11-09T12:46:37.285Z,15.44
2022-11-09T12:47:37.280Z,15.36
2022-11-09T12:48:37.267Z,15.39
2022-11-09T12:49:37.268Z,15.42
2022-11-09T12:50:37.244Z,15.39
2022-11-09T12:51:37.238Z,15.44
2022-11-09T12:52:37.241Z,15.40
2022-11-09T12:53:37.206Z,15.29
2022-11-09T12:54:37.198Z,15.28